createdAt,value
2022-11-28T00:00:31.837Z,797.1
2022-11-28T00:02:15.553Z,792.9
2022-11-28T00:03:59.222Z,792.2
2022-11-28T00:05:42.953Z,789.3
2022-11-28T00:07:26.654Z,789.4
2022-11-28T00:09:10.355Z,789.8
2022-11-28T00:10:54.062Z,789
2022-11-28T00:12:37.749Z,787.6
2022-11-28T00:14:21.455Z,788.1
2022-11-28T00:16:05.161Z,788.4
2022-11-28T00:17:48.853Z,784.7
2022-11-28T00:19:32.601Z,782.1
2022-11-28T00:21:16.269Z,779.5
2022-11-28T00:22:59.970Z,776.6
2022-11-28T00:24:43.648Z,774.6
2022-11-28T00:26:27.368Z,774
2022-11-28T00:28:11.071Z,770.9
2022-11-28T00:29:54.800Z,767
2022-11-28T00:31:38.526Z,764.2
2022-11-28T00:33:22.158Z,760.3
2022-11-28T00:35:05.880Z,754.1
2022-11-28T00:36:49.578Z,752.8
2022-11-28T00:38:33.270Z,752.5
2022-11-28T00:40:16.985Z,751
2022-11-28T00:42:00.734Z,746.9
2022-11-28T00:43:44.395Z,742.5
2022-11-28T00:45:28.084Z,742.3
2022-11-28T00:47:11.781Z,741.9
2022-11-28T00:48:55.519Z,743.1
2022-11-28T00:50:39.185Z,742
2022-11-28T00:52:22.899Z,740.4
2022-11-28T00:54:06.597Z,738.1
2022-11-28T00:55:50.285Z,719.2
2022-11-28T00:57:34.011Z,720.4
2022-11-28T00:59:17.695Z,725.2
2022-11-28T01:01:01.390Z,723.9
2022-11-28T01:02:45.150Z,722.7
2022-11-28T01:04:28.817Z,723.3
2022-11-28T01:06:12.623Z,720.8
2022-11-28T01:07:56.195Z,718.1
2022-11-28T01:09:39.897Z,716.5
2022-11-28T01:11:23.622Z,715.4
2022-11-28T01:13:07.315Z,714.7
2022-11-28T01:14:51.058Z,715.6
2022-11-28T01:16:34.725Z,715.7
2022-11-28T01:18:18.421Z,714.8
2022-11-28T01:20:02.117Z,713.5
2022-11-28T01:21:45.881Z,713.2
2022-11-28T01:23:29.570Z,712.9
2022-11-28T01:25:13.211Z,713.9
2022-11-28T01:26:56.964Z,713.3
2022-11-28T01:28:40.626Z,711.2
2022-11-28T01:30:24.315Z,709
2022-11-28T01:32:08.040Z,704.4
2022-11-28T01:33:51.730Z,700.6
2022-11-28T01:35:54.455Z,698.4
2022-11-28T01:37:19.180Z,696
2022-11-28T01:39:02.830Z,693.2
2022-11-28T01:40:46.527Z,691.9
2022-11-28T01:42:30.248Z,688.7
2022-11-28T01:44:13.944Z,684.8
2022-11-28T01:45:57.643Z,685
2022-11-28T01:47:41.347Z,684.9
2022-11-28T01:49:25.072Z,684.2
2022-11-28T01:51:08.766Z,684.5
2022-11-28T01:52:52.433Z,685.9
2022-11-28T01:54:36.141Z,686.4
2022-11-28T01:56:19.850Z,685.4
2022-11-28T01:58:03.681Z,682.2
2022-11-28T01:59:47.279Z,681.4
2022-11-28T02:01:30.952Z,677.4
2022-11-28T02:03:14.663Z,674.9
2022-11-28T02:04:58.365Z,673.8
2022-11-28T02:06:42.108Z,673.4
2022-11-28T02:08:25.765Z,671.8
2022-11-28T02:10:09.464Z,671.9
2022-11-28T02:11:53.201Z,673.5
2022-11-28T02:13:36.889Z,674
2022-11-28T02:15:20.572Z,671.2
2022-11-28T02:17:04.267Z,670.4
2022-11-28T02:18:47.982Z,674.1
2022-11-28T02:20:31.693Z,677.8
2022-11-28T02:22:15.371Z,677.7
2022-11-28T02:23:59.076Z,676.7
2022-11-28T02:25:42.778Z,676
2022-11-28T02:27:26.492Z,671.3
2022-11-28T02:29:10.173Z,669.3
2022-11-28T02:30:53.975Z,668.8
2022-11-28T02:32:37.590Z,665.7
2022-11-28T02:34:21.301Z,666.2
2022-11-28T02:36:05.072Z,665.1
2022-11-28T02:37:48.687Z,665
2022-11-28T02:39:32.452Z,665.3
2022-11-28T02:41:16.093Z,666.3
2022-11-28T02:42:59.791Z,667.2
2022-11-28T02:44:43.493Z,663
2022-11-28T02:46:27.209Z,660.2
2022-11-28T02:48:10.917Z,658.9
2022-11-28T02:49:54.621Z,657.4
2022-11-28T02:51:38.314Z,659
2022-11-28T02:53:22.076Z,659.2
2022-11-28T02:55:05.702Z,660.6
2022-11-28T02:56:49.433Z,658.7
2022-11-28T02:58:33.108Z,654.7
2022-11-28T03:00:16.824Z,653.9
2022-11-28T03:02:00.567Z,649.8
2022-11-28T03:03:44.243Z,649.6
2022-11-28T03:05:27.922Z,649.1
2022-11-28T03:07:11.668Z,648.3
2022-11-28T03:08:55.334Z,643.2
2022-11-28T03:10:39.054Z,640.6
2022-11-28T03:12:22.727Z,637.1
2022-11-28T03:14:06.443Z,637.2
2022-11-28T03:15:50.136Z,638.1
2022-11-28T03:17:33.845Z,635.8
2022-11-28T03:19:17.547Z,633.6
2022-11-28T03:21:01.249Z,632.1
2022-11-28T03:22:44.957Z,632.5
2022-11-28T03:24:28.651Z,630.8
2022-11-28T03:26:12.358Z,629.8
2022-11-28T03:27:56.046Z,629.9
2022-11-28T03:29:39.758Z,628
2022-11-28T03:31:23.476Z,625.9
2022-11-28T03:33:07.174Z,628.5
2022-11-28T03:34:50.848Z,627.8
2022-11-28T03:36:34.556Z,625.2
2022-11-28T03:38:18.271Z,623.2
2022-11-28T03:40:02.004Z,621.9
2022-11-28T03:41:45.657Z,620.5
2022-11-28T03:43:29.369Z,621.5
2022-11-28T03:45:13.079Z,621.2
2022-11-28T03:46:56.790Z,621
2022-11-28T03:48:40.464Z,619.8
2022-11-28T03:50:24.173Z,620.7
2022-11-28T03:52:07.950Z,621.5
2022-11-28T03:53:51.589Z,621.3
2022-11-28T03:55:35.280Z,622.4
2022-11-28T03:57:18.978Z,623
2022-11-28T03:59:02.668Z,618.7
2022-11-28T04:00:46.382Z,616.7
2022-11-28T04:02:30.077Z,617.3
2022-11-28T04:04:13.782Z,613.8
2022-11-28T04:05:57.510Z,611.3
2022-11-28T04:07:41.195Z,610.4
2022-11-28T04:09:24.879Z,606
2022-11-28T04:12:52.292Z,608.2
2022-11-28T04:14:35.980Z,609.9
2022-11-28T04:16:19.681Z,609
2022-11-28T08:44:13.994Z,674.4
2022-11-28T08:45:57.381Z,675.1
2022-11-28T08:47:41.235Z,678.7
2022-11-28T08:49:24.878Z,682.7
2022-11-28T08:51:08.510Z,688.7
2022-11-28T08:52:52.227Z,697.8
2022-11-28T08:54:35.879Z,702.7
2022-11-28T08:56:19.559Z,711.6
2022-11-28T08:58:03.354Z,717.3
2022-11-28T08:59:47.038Z,718.8
2022-11-28T09:01:30.743Z,721.7
2022-11-28T09:03:14.492Z,732.9
2022-11-28T09:04:58.187Z,741
2022-11-28T09:06:41.847Z,745.9
2022-11-28T09:08:25.474Z,747
2022-11-28T09:10:09.249Z,750.4
2022-11-28T09:11:52.914Z,757.1
2022-11-28T09:13:36.661Z,759
2022-11-28T09:15:20.472Z,762.6
2022-11-28T09:17:04.066Z,766.3
2022-11-28T09:18:47.806Z,763.2
2022-11-28T09:20:31.280Z,761.9
2022-11-28T09:22:15.113Z,761.3
2022-11-28T09:23:58.821Z,760.4
2022-11-28T09:25:42.527Z,762.2
2022-11-28T09:27:26.275Z,765.7
2022-11-28T09:29:09.921Z,769.9
2022-11-28T09:30:53.492Z,771
2022-11-28T09:32:37.276Z,772.9
2022-11-28T09:34:21.025Z,774.4
2022-11-28T09:36:04.672Z,776.6
2022-11-28T09:37:48.496Z,780.7
2022-11-28T09:39:32.090Z,780.4
2022-11-28T09:41:15.904Z,786.3
2022-11-28T09:42:59.545Z,787.3
2022-11-28T09:44:43.213Z,785.3
2022-11-28T09:46:26.819Z,784.4
2022-11-28T09:48:10.623Z,784.7
2022-11-28T09:49:54.230Z,784.8
2022-11-28T09:51:38.068Z,786.1
2022-11-28T09:53:21.697Z,787.8
2022-11-28T09:55:05.322Z,790.3
2022-11-28T09:56:49.082Z,785.9
2022-11-28T09:58:32.839Z,786.3
2022-11-28T10:00:16.572Z,782.5
2022-11-28T10:02:00.155Z,782.4
2022-11-28T10:03:43.844Z,780.9
2022-11-28T10:05:27.499Z,783.1
2022-11-28T10:07:11.245Z,785
2022-11-28T10:08:54.918Z,786.2
2022-11-28T10:10:38.775Z,787.9
2022-11-28T10:12:22.318Z,788.3
2022-11-28T10:14:06.012Z,787.5
2022-11-28T10:15:49.861Z,791.1
2022-11-28T10:17:33.497Z,794.7
2022-11-28T10:19:17.191Z,796.7
2022-11-28T10:21:00.905Z,789.6
2022-11-28T10:22:44.508Z,773.4
2022-11-28T10:24:28.286Z,764.7
2022-11-28T10:26:12.128Z,754.6
2022-11-28T10:27:55.746Z,744.4
2022-11-28T10:29:39.319Z,741.2
2022-11-28T10:31:23.128Z,736.5
2022-11-28T10:33:06.928Z,735.4
2022-11-28T10:34:50.430Z,735
2022-11-28T10:36:34.313Z,736.2
2022-11-28T10:38:17.959Z,733
2022-11-28T10:40:01.707Z,729.7
2022-11-28T10:41:45.293Z,727.8
2022-11-28T10:43:29.130Z,731.8
2022-11-28T10:45:12.738Z,740.4
2022-11-28T10:46:56.511Z,747.6
2022-11-28T10:48:40.277Z,760.6
2022-11-28T10:50:23.806Z,769.7
2022-11-28T10:52:07.598Z,783.1
2022-11-28T10:53:51.313Z,796.3
2022-11-28T10:55:34.997Z,800.7
2022-11-28T10:57:18.690Z,803
2022-11-28T10:59:02.433Z,809.5
2022-11-28T11:00:46.074Z,818.6
2022-11-28T11:02:29.843Z,822.6
2022-11-28T11:04:13.455Z,825.4
2022-11-28T11:05:57.239Z,827.7
2022-11-28T11:07:40.788Z,829.3
2022-11-28T11:09:24.477Z,828.9
2022-11-28T11:11:08.184Z,828
2022-11-28T11:12:51.911Z,826.2
2022-11-28T11:14:35.582Z,824.4
2022-11-28T11:16:19.290Z,819.8
2022-11-28T11:18:02.990Z,818.7
2022-11-28T11:19:46.722Z,818.5
2022-11-28T11:21:30.398Z,815.3
2022-11-28T11:23:14.147Z,814.3
2022-11-28T11:24:57.896Z,814.1
2022-11-28T11:26:41.497Z,815
2022-11-28T11:28:25.207Z,815.2
2022-11-28T11:30:08.896Z,811.6
2022-11-28T11:31:52.610Z,807.7
2022-11-28T11:33:36.404Z,803.6
2022-11-28T11:35:20.142Z,798.5
2022-11-28T11:37:03.707Z,794.3
2022-11-28T11:38:47.477Z,791.8
2022-11-28T11:40:31.101Z,791.9
2022-11-28T11:42:14.866Z,790.6
2022-11-28T11:43:58.509Z,791.5
2022-11-28T11:45:42.203Z,791.1
2022-11-28T11:47:25.909Z,791.1
2022-11-28T11:49:09.721Z,789.6
2022-11-28T11:50:53.435Z,785.1
2022-11-28T11:52:37.160Z,786.7
2022-11-28T11:54:20.859Z,792.3
2022-11-28T11:56:04.571Z,797.1
2022-11-28T11:57:48.252Z,806.7
2022-11-28T11:59:31.990Z,812.7
2022-11-28T12:01:15.685Z,815.8
2022-11-28T12:02:59.456Z,820.6
2022-11-28T12:04:42.932Z,823.5
2022-11-28T12:06:26.761Z,823.1
2022-11-28T12:08:10.408Z,821.7
2022-11-28T12:09:54.163Z,826.6
2022-11-28T12:11:37.887Z,824.7
2022-11-28T12:13:21.601Z,820
2022-11-28T12:15:05.323Z,816.4
2022-11-28T12:16:49.000Z,810.4
2022-11-28T12:18:34.531Z,806.1
2022-11-28T12:20:16.413Z,801.6
2022-11-28T12:22:00.095Z,797.5
2022-11-28T12:23:43.805Z,793.7
2022-11-28T12:27:11.190Z,788.4
2022-11-28T12:28:54.730Z,786.6
2022-11-28T12:30:38.433Z,787.2
2022-11-28T12:32:22.183Z,792.1
2022-11-28T12:34:05.983Z,791.5
2022-11-28T12:35:49.739Z,790
2022-11-28T12:37:33.252Z,786.5
2022-11-28T12:39:17.114Z,789.9
2022-11-28T12:41:00.655Z,847.4
2022-11-28T12:42:44.323Z,869.9
2022-11-28T12:44:28.029Z,866.4
2022-11-28T12:46:11.761Z,869.9
2022-11-28T12:47:55.472Z,943.1
2022-11-28T12:49:39.244Z,965.7
2022-11-28T12:51:22.891Z,992.3
2022-11-28T12:53:06.547Z,1003.3
2022-11-28T12:54:50.244Z,1009.9
2022-11-28T12:56:34.044Z,1027.8
2022-11-28T12:58:17.853Z,1041.1
2022-11-28T13:00:01.564Z,1049.9
2022-11-28T13:01:45.070Z,1051.7
2022-11-28T13:03:28.937Z,1056.6
2022-11-28T13:05:12.478Z,1058.5
2022-11-28T13:06:56.378Z,1060.2
2022-11-28T13:08:39.889Z,1062.3
2022-11-28T13:10:23.651Z,1065.1
2022-11-28T13:12:07.400Z,1064.5
2022-11-28T13:13:50.956Z,1061.1
2022-11-28T13:15:34.664Z,1066.8
2022-11-28T13:17:18.622Z,1064.5
2022-11-28T13:19:02.106Z,1059.8
2022-11-28T13:20:45.780Z,1065.5
2022-11-28T13:22:29.572Z,1076.9
2022-11-28T13:24:13.177Z,1088.1
2022-11-28T13:25:56.871Z,1095.3
2022-11-28T13:27:40.555Z,1094.3
2022-11-28T13:29:24.265Z,1092.7
2022-11-28T13:31:08.145Z,1075.4
2022-11-28T13:32:51.752Z,1039.5
2022-11-28T13:34:35.439Z,1023.4
2022-11-28T13:36:19.116Z,1007.7
2022-11-28T13:38:02.767Z,992
2022-11-28T13:39:46.481Z,993.7
2022-11-28T13:41:30.349Z,1004.9
2022-11-28T13:44:57.688Z,1039.3
2022-11-28T13:46:41.329Z,1049
2022-11-28T13:48:25.017Z,1060.8
2022-11-28T13:50:08.708Z,1062.5
2022-11-28T13:51:52.400Z,1061.6
2022-11-28T13:53:36.168Z,1064.1
2022-11-28T13:55:19.825Z,1066
2022-11-28T13:57:03.695Z,1066.6
2022-11-28T13:58:47.213Z,1064
2022-11-28T14:00:30.914Z,1059.8
2022-11-28T14:02:14.654Z,1055.5
2022-11-28T14:03:58.323Z,1055.6
2022-11-28T14:05:42.008Z,1058.6
2022-11-28T14:07:25.709Z,1061
2022-11-28T14:09:09.411Z,1062
2022-11-28T14:10:53.130Z,1068.3
2022-11-28T14:12:36.928Z,1067.2
2022-11-28T14:14:20.520Z,1061.8
2022-11-28T14:16:04.390Z,1055.3
2022-11-28T14:17:48.102Z,1049.7
2022-11-28T14:19:31.835Z,1045.8
2022-11-28T14:21:15.328Z,1039.4
2022-11-28T14:22:59.028Z,1030.7
2022-11-28T14:26:26.449Z,1026.9
2022-11-28T14:28:10.125Z,1026.9
2022-11-28T14:29:53.835Z,1028.7
2022-11-28T14:31:37.639Z,1031.2
2022-11-28T14:33:21.247Z,1033.6
2022-11-28T14:35:04.936Z,1035.1
2022-11-28T14:36:48.650Z,1031
2022-11-28T14:38:32.368Z,1022.6
2022-11-28T14:40:16.066Z,1012.3
2022-11-28T14:41:59.758Z,1005.3
2022-11-28T14:43:43.461Z,1000.8
2022-11-28T14:45:27.176Z,994.1
2022-11-28T14:47:10.950Z,990.7
2022-11-28T14:48:54.563Z,986.9
2022-11-28T14:50:38.274Z,982.6
2022-11-28T14:52:21.977Z,977.6
2022-11-28T14:54:05.677Z,977.9
2022-11-28T14:55:49.524Z,984
2022-11-28T14:57:33.077Z,983.5
2022-11-28T14:59:16.779Z,984.5
2022-11-28T15:01:00.566Z,983.6
2022-11-28T15:02:44.199Z,982.7
2022-11-28T15:06:11.720Z,978.7
2022-11-28T15:07:55.389Z,977.5
2022-11-28T15:09:39.046Z,981.8
2022-11-28T15:11:22.835Z,982.8
2022-11-28T15:13:06.544Z,981.6
2022-11-28T15:14:50.187Z,980.4
2022-11-28T15:16:33.894Z,983.1
2022-11-28T15:18:17.486Z,984.9
2022-11-28T15:20:01.188Z,987
2022-11-28T15:21:45.044Z,992.5
2022-11-28T15:23:28.608Z,1031.8
2022-11-28T15:25:12.303Z,1022.9
2022-11-28T15:26:56.007Z,1014.5
2022-11-28T15:28:39.704Z,1006.9
2022-11-28T15:30:23.408Z,1004.4
2022-11-28T15:32:07.127Z,1000.2
2022-11-28T15:33:50.831Z,997.9
2022-11-28T15:35:34.511Z,995.5
2022-11-28T15:37:18.228Z,995.6
2022-11-28T15:39:01.912Z,988.7
2022-11-28T15:40:45.627Z,984.2
2022-11-28T15:42:29.318Z,980.5
2022-11-28T15:44:13.027Z,977.8
2022-11-28T15:45:56.723Z,977.6
2022-11-28T15:47:40.422Z,978.5
2022-11-28T15:49:24.133Z,981
2022-11-28T15:51:07.826Z,981.6
2022-11-28T15:52:51.535Z,980.1
2022-11-28T15:54:35.230Z,983
2022-11-28T15:56:18.919Z,985
2022-11-28T15:58:02.637Z,985.4
2022-11-28T15:59:46.305Z,988.3
2022-11-28T16:01:30.043Z,988
2022-11-28T16:03:13.724Z,990.1
2022-11-28T16:04:57.432Z,994
2022-11-28T16:06:41.117Z,997.1
2022-11-28T16:08:24.830Z,999.4
2022-11-28T16:10:08.528Z,1004.2
2022-11-28T16:11:52.246Z,1005.7
2022-11-28T16:13:35.948Z,1006.9
2022-11-28T16:15:19.639Z,1007.8
2022-11-28T16:17:03.360Z,1011.2
2022-11-28T16:18:47.048Z,1017.4
2022-11-28T16:20:30.760Z,1021.5
2022-11-28T16:22:14.454Z,1025.9
2022-11-28T16:23:58.154Z,1027.3
2022-11-28T16:25:41.864Z,1023.4
2022-11-28T16:27:25.552Z,1018.8
2022-11-28T16:29:09.252Z,1013
2022-11-28T16:30:52.962Z,1017.3
2022-11-28T16:32:36.648Z,1023
2022-11-28T16:34:20.365Z,1029.7
2022-11-28T16:36:04.054Z,1034.5
2022-11-28T16:37:47.767Z,1035.8
2022-11-28T16:39:31.465Z,1037.6
2022-11-28T16:41:15.168Z,1038.8
2022-11-28T16:42:58.853Z,1038.6
2022-11-28T16:44:42.582Z,1041.9
2022-11-28T16:46:26.282Z,1044.2
2022-11-28T16:48:09.955Z,1045.3
2022-11-28T16:49:53.680Z,1045.3
2022-11-28T16:51:37.365Z,1047.4
2022-11-28T16:53:21.073Z,1050.8
2022-11-28T16:55:04.751Z,1053.5
2022-11-28T16:56:48.482Z,1058.8
2022-11-28T16:58:32.169Z,1062.9
2022-11-28T17:00:15.876Z,1123.1
2022-11-28T17:01:59.579Z,1107.4
2022-11-28T17:03:43.275Z,1090.9
2022-11-28T17:05:26.968Z,1081.9
2022-11-28T17:07:10.679Z,1078.1
2022-11-28T17:08:54.392Z,1077.1
2022-11-28T17:10:38.087Z,1077.7
2022-11-28T17:12:21.795Z,1072.3
2022-11-28T17:14:05.513Z,1074.1
2022-11-28T17:15:49.194Z,1081.4
2022-11-28T17:17:32.909Z,1080.9
2022-11-28T17:19:16.607Z,1084.9
2022-11-28T17:21:00.289Z,1089.3
2022-11-28T17:22:44.002Z,1089.8
2022-11-28T17:24:27.714Z,1090.8
2022-11-28T17:26:11.403Z,1089.6
2022-11-28T17:27:55.084Z,1093.5
2022-11-28T17:29:38.807Z,1096.4
2022-11-28T17:31:22.517Z,1097.8
2022-11-28T17:33:06.214Z,1098.3
2022-11-28T17:34:49.901Z,1098.5
2022-11-28T17:36:33.624Z,1101.9
2022-11-28T17:38:17.324Z,1101.8
2022-11-28T17:40:01.012Z,1101.3
2022-11-28T17:41:44.737Z,1104.7
2022-11-28T17:43:28.426Z,1117.9
2022-11-28T17:45:12.122Z,1131.3
2022-11-28T17:46:55.835Z,1150.1
2022-11-28T17:48:39.535Z,1167.1
2022-11-28T17:50:23.270Z,1173
2022-11-28T17:52:06.923Z,1176.8
2022-11-28T17:53:50.634Z,1182.6
2022-11-28T17:55:34.362Z,1188.1
2022-11-28T17:57:18.039Z,1187.5
2022-11-28T17:59:01.737Z,1189.9
2022-11-28T18:00:45.439Z,1192.3
2022-11-28T18:02:29.145Z,1194.2
2022-11-28T18:04:12.838Z,1191.2
2022-11-28T18:05:56.569Z,1192.1
2022-11-28T18:07:40.260Z,1189.5
2022-11-28T18:09:23.960Z,1186.1
2022-11-28T18:11:07.682Z,1183.1
2022-11-28T18:12:51.351Z,1180
2022-11-28T18:14:35.055Z,1180.9
2022-11-28T18:16:18.772Z,1185.7
2022-11-28T18:18:02.477Z,1187.9
2022-11-28T18:19:46.156Z,1191.5
2022-11-28T18:21:29.873Z,1196.8
2022-11-28T18:23:13.571Z,1195.6
2022-11-28T18:24:57.318Z,1196.2
2022-11-28T18:26:40.980Z,1203.6
2022-11-28T18:28:24.679Z,1206.4
2022-11-28T18:30:08.380Z,1210
2022-11-28T18:31:52.097Z,1216.3
2022-11-28T18:33:35.799Z,1221.9
2022-11-28T18:35:19.481Z,1227.3
2022-11-28T18:37:03.241Z,1226.6
2022-11-28T18:38:46.896Z,1224.9
2022-11-28T18:40:30.601Z,1222.5
2022-11-28T18:42:14.291Z,1225.4
2022-11-28T18:43:58.017Z,1232.1
2022-11-28T18:45:41.724Z,1237.5
2022-11-28T18:47:25.401Z,1244.9
2022-11-28T18:49:09.092Z,1250.6
2022-11-28T18:50:52.793Z,1256
2022-11-28T18:52:36.497Z,1254.3
2022-11-28T18:54:20.200Z,1251.4
2022-11-28T18:56:03.909Z,1252.2
2022-11-28T18:57:47.616Z,1252.4
2022-11-28T18:59:31.311Z,1250.1
2022-11-28T19:01:15.063Z,1245.5
2022-11-28T19:02:58.723Z,1241.3
2022-11-28T19:04:42.432Z,1239.3
2022-11-28T19:06:26.118Z,1238.6
2022-11-28T19:08:09.835Z,1240.4
2022-11-28T19:09:53.552Z,1239.6
2022-11-28T19:11:37.209Z,1234.7
2022-11-28T19:13:20.930Z,1232.2
2022-11-28T19:15:04.637Z,1232
2022-11-28T19:16:48.337Z,1228.7
2022-11-28T19:18:32.027Z,1225.2
2022-11-28T19:20:15.740Z,1220.6
2022-11-28T19:21:59.422Z,1218.4
2022-11-28T19:23:43.143Z,1222.5
2022-11-28T19:25:26.836Z,1225.8
2022-11-28T19:27:10.548Z,1223.3
2022-11-28T19:28:54.248Z,1221.7
2022-11-28T19:30:37.942Z,1222.5
2022-11-28T19:32:21.659Z,1225.9
2022-11-28T19:34:05.346Z,1227.5
2022-11-28T19:35:49.065Z,1229.1
2022-11-28T19:37:32.773Z,1233.2
2022-11-28T19:39:16.465Z,1238.4
2022-11-28T19:41:00.188Z,1243.3
2022-11-28T19:42:43.856Z,1242
2022-11-28T19:44:27.559Z,1239.6
2022-11-28T19:46:11.272Z,1237.8
2022-11-28T19:47:54.947Z,1239.4
2022-11-28T19:49:38.648Z,1240.4
2022-11-28T19:51:22.374Z,1240.6
2022-11-28T19:53:06.118Z,1240.9
2022-11-28T19:54:49.753Z,1235.9
2022-11-28T19:56:33.468Z,1235.4
2022-11-28T19:58:17.161Z,1234.5
2022-11-28T20:00:00.898Z,1235.8
2022-11-28T20:01:44.582Z,1237.5
2022-11-28T20:03:28.269Z,1233.4
2022-11-28T20:05:11.993Z,1230.2
2022-11-28T20:06:55.675Z,1232.3
2022-11-28T20:08:39.402Z,1234.3
2022-11-28T20:10:23.084Z,1232.3
2022-11-28T20:12:06.781Z,1233.7
2022-11-28T20:13:50.482Z,1235
2022-11-28T20:15:34.203Z,1234.3
2022-11-28T20:17:17.923Z,1234
2022-11-28T20:19:01.590Z,1235.7
2022-11-28T20:20:45.308Z,1238.2
2022-11-28T20:22:29.007Z,1238.7
2022-11-28T20:24:12.723Z,1242.3
2022-11-28T20:25:56.407Z,1245
2022-11-28T20:27:40.137Z,1238.1
2022-11-28T20:29:23.814Z,1237.9
2022-11-28T20:31:07.506Z,1232.8
2022-11-28T20:32:51.193Z,1227.5
2022-11-28T20:34:34.908Z,1225.4
2022-11-28T20:36:18.628Z,1224
2022-11-28T20:38:02.310Z,1220.2
2022-11-28T20:39:46.014Z,1212.8
2022-11-28T20:41:29.738Z,1208.7
2022-11-28T20:43:13.430Z,1202.3
2022-11-28T20:44:57.150Z,1196.7
2022-11-28T20:46:40.846Z,1188.7
2022-11-28T20:48:24.532Z,1182.3
2022-11-28T20:50:08.243Z,1175.2
2022-11-28T20:51:51.927Z,1174.4
2022-11-28T20:53:35.669Z,1171.5
2022-11-28T20:57:03.049Z,1169.9
2022-11-28T20:58:46.761Z,1166.2
2022-11-28T21:00:30.466Z,1163.9
2022-11-28T21:02:14.152Z,1162.4
2022-11-28T21:03:57.833Z,1163.7
2022-11-28T21:05:41.547Z,1162
2022-11-28T21:07:25.238Z,1160.7
2022-11-28T21:09:08.943Z,1157.8
